createdAt,value
2022-12-20T00:02:04.911Z,4.63
2022-12-20T00:04:31.167Z,3.40
2022-12-20T00:06:57.393Z,3.33
2022-12-20T00:09:25.237Z,3.25
2022-12-20T00:11:51.467Z,3.25
2022-12-20T00:14:17.884Z,3.03
2022-12-20T00:16:44.178Z,2.75
2022-12-20T00:19:10.749Z,3.65
2022-12-20T00:21:38.056Z,2.75
2022-12-20T00:24:05.076Z,3.85
2022-12-20T00:26:32.619Z,4.32
2022-12-20T00:28:59.839Z,3.95
2022-12-20T00:31:27.079Z,3.17
2022-12-20T00:33:54.381Z,3.42
2022-12-20T00:36:21.673Z,5.90
2022-12-20T00:38:48.520Z,2.85
2022-12-20T00:41:15.949Z,3.83
2022-12-20T00:43:42.245Z,3.78
2022-12-20T00:46:09.735Z,4.57
2022-12-20T00:48:36.319Z,4.43
2022-12-20T00:51:04.388Z,4.28
2022-12-20T00:53:30.625Z,3.70
2022-12-20T00:55:57.197Z,4.63
2022-12-20T00:58:23.810Z,5.50
2022-12-20T01:00:55.840Z,4.30
2022-12-20T01:03:23.092Z,3.55
2022-12-20T01:05:50.431Z,6.40
2022-12-20T01:08:16.685Z,5.22
2022-12-20T01:10:43.074Z,5.97
2022-12-20T01:13:09.277Z,4.53
2022-12-20T01:15:35.473Z,7.20
2022-12-20T01:18:01.820Z,6.28
2022-12-20T01:20:28.198Z,6.30
2022-12-20T01:22:54.432Z,3.92
2022-12-20T01:25:20.646Z,4.60
2022-12-20T01:27:46.858Z,4.30
2022-12-20T01:30:13.205Z,4.82
2022-12-20T01:32:39.408Z,3.92
2022-12-20T01:35:05.795Z,6.75
2022-12-20T01:37:32.442Z,6.88
2022-12-20T01:39:58.639Z,4.90
2022-12-20T01:42:24.837Z,8.43
2022-12-20T01:44:53.054Z,6.00
2022-12-20T01:47:19.417Z,4.93
2022-12-20T01:49:47.576Z,5.35
2022-12-20T01:52:19.340Z,4.72
2022-12-20T01:54:51.460Z,5.03
2022-12-20T01:57:20.020Z,4.30
2022-12-20T01:59:47.282Z,4.85
2022-12-20T02:02:13.999Z,4.45
2022-12-20T02:04:40.442Z,6.32
2022-12-20T02:07:07.893Z,5.50
2022-12-20T02:09:35.909Z,5.25
2022-12-20T02:12:05.014Z,5.43
2022-12-20T02:14:49.198Z,7.55
2022-12-20T02:17:15.535Z,5.70
2022-12-20T02:19:47.576Z,4.70
2022-12-20T02:22:37.251Z,4.40
2022-12-20T02:25:10.747Z,5.32
2022-12-20T02:27:47.261Z,5.00
2022-12-20T02:30:14.372Z,5.57
2022-12-20T02:32:44.742Z,5.57
2022-12-20T02:35:13.178Z,5.15
2022-12-20T02:37:53.714Z,5.68
2022-12-20T02:40:22.418Z,5.45
2022-12-20T02:42:51.138Z,6.03
2022-12-20T02:45:20.660Z,4.55
2022-12-20T02:47:55.700Z,4.72
2022-12-20T02:50:25.433Z,3.67
2022-12-20T02:52:52.005Z,4.75
2022-12-20T02:55:18.323Z,6.13
2022-12-20T02:58:00.845Z,5.15
2022-12-20T03:00:29.653Z,5.85
2022-12-20T03:03:14.609Z,3.95
2022-12-20T03:05:45.243Z,11.40
2022-12-20T03:08:11.496Z,5.00
2022-12-20T03:10:37.881Z,4.53
2022-12-20T03:13:04.476Z,6.25
2022-12-20T03:15:30.681Z,5.80
2022-12-20T03:17:56.905Z,5.82
2022-12-20T03:20:23.120Z,3.88
2022-12-20T03:22:49.353Z,4.45
2022-12-20T03:25:15.603Z,5.30
2022-12-20T03:27:41.895Z,5.63
2022-12-20T03:30:08.702Z,6.10
2022-12-20T03:32:34.992Z,5.68
2022-12-20T03:35:01.543Z,6.03
2022-12-20T03:37:27.805Z,5.70
2022-12-20T03:39:54.006Z,6.10
2022-12-20T03:42:20.187Z,5.55
2022-12-20T03:44:46.532Z,6.20
2022-12-20T03:47:12.775Z,5.00
2022-12-20T03:49:38.978Z,6.68
2022-12-20T03:52:05.280Z,4.38
2022-12-20T03:54:31.711Z,5.68
2022-12-20T03:56:57.897Z,5.30
2022-12-20T03:59:24.379Z,4.22
2022-12-20T04:01:50.654Z,8.25
2022-12-20T04:04:17.051Z,6.28
2022-12-20T04:06:43.275Z,4.75
2022-12-20T04:09:09.484Z,4.93
2022-12-20T04:11:35.692Z,6.30
2022-12-20T04:14:01.922Z,6.45
2022-12-20T04:16:29.055Z,5.75
2022-12-20T04:18:55.557Z,6.07
2022-12-20T04:21:26.100Z,4.80
2022-12-20T04:23:52.385Z,4.88
2022-12-20T04:26:18.608Z,4.85
2022-12-20T04:28:44.823Z,5.20
2022-12-20T04:31:11.312Z,5.22
2022-12-20T04:33:37.560Z,6.72
2022-12-20T04:36:04.108Z,5.47
2022-12-20T04:38:30.498Z,8.20
2022-12-20T04:40:56.905Z,6.10
2022-12-20T04:43:23.963Z,5.97
2022-12-20T04:45:51.212Z,11.27
2022-12-20T04:48:46.565Z,9.07
2022-12-20T04:51:03.695Z,40.20
2022-12-20T04:53:48.416Z,11.98
2022-12-20T04:56:15.889Z,13.13
2022-12-20T04:58:42.407Z,11.27
2022-12-20T05:01:09.605Z,7.90
2022-12-20T05:03:35.953Z,6.95
2022-12-20T05:06:02.163Z,7.90
2022-12-20T05:08:28.365Z,6.93
2022-12-20T05:10:54.627Z,8.95
2022-12-20T05:13:20.870Z,4.57
2022-12-20T05:15:50.370Z,6.47
2022-12-20T05:18:16.556Z,5.82
2022-12-20T05:20:42.773Z,5.63
2022-12-20T05:23:28.381Z,5.30
2022-12-20T05:26:13.547Z,6.53
2022-12-20T05:28:39.882Z,5.88
2022-12-20T05:31:06.240Z,6.50
2022-12-20T05:33:34.319Z,6.70
2022-12-20T05:36:00.753Z,6.47
2022-12-20T05:38:27.279Z,6.10
2022-12-20T05:40:53.515Z,7.35
2022-12-20T05:43:20.182Z,5.88
2022-12-20T05:45:47.283Z,5.82
2022-12-20T05:48:13.661Z,6.07
2022-12-20T05:50:39.968Z,5.85
2022-12-20T05:53:11.643Z,4.72
2022-12-20T05:55:40.394Z,5.85
2022-12-20T05:58:07.460Z,6.43
2022-12-20T06:00:34.067Z,4.43
2022-12-20T06:03:00.506Z,5.75
2022-12-20T06:05:26.908Z,4.47
2022-12-20T06:07:53.088Z,6.03
2022-12-20T06:10:19.307Z,5.38
2022-12-20T06:12:45.523Z,5.60
2022-12-20T06:15:11.835Z,6.30
2022-12-20T06:17:38.034Z,5.35
2022-12-20T06:20:04.496Z,6.07
2022-12-20T06:22:31.788Z,4.78
2022-12-20T06:24:58.012Z,6.43
2022-12-20T06:27:24.297Z,7.30
2022-12-20T06:29:54.282Z,5.40
2022-12-20T06:32:20.655Z,7.90
2022-12-20T06:34:46.880Z,6.82
2022-12-20T06:37:13.199Z,6.50
2022-12-20T06:39:39.425Z,6.25
2022-12-20T06:42:05.645Z,6.28
2022-12-20T06:44:31.966Z,6.40
2022-12-20T06:46:58.283Z,7.70
2022-12-20T06:49:24.521Z,5.25
2022-12-20T06:51:50.894Z,7.28
2022-12-20T06:54:17.068Z,7.30
2022-12-20T06:56:43.256Z,7.93
2022-12-20T06:59:09.478Z,8.77
2022-12-20T07:01:36.018Z,6.63
2022-12-20T07:04:02.441Z,6.25
2022-12-20T07:06:29.288Z,7.47
2022-12-20T07:08:55.676Z,9.02
2022-12-20T07:11:21.976Z,7.65
2022-12-20T07:13:50.042Z,6.53
2022-12-20T07:16:16.313Z,7.65
2022-12-20T07:18:44.642Z,7.05
2022-12-20T07:21:10.858Z,7.40
2022-12-20T07:23:37.105Z,6.15
2022-12-20T07:26:03.957Z,5.47
2022-12-20T07:28:30.330Z,6.95
2022-12-20T07:31:00.556Z,7.18
2022-12-20T07:33:26.760Z,8.13
2022-12-20T07:35:59.468Z,7.15
2022-12-20T07:38:26.243Z,7.32
2022-12-20T07:40:52.487Z,8.57
2022-12-20T07:43:18.686Z,7.10
2022-12-20T07:45:44.899Z,8.35
2022-12-20T07:48:17.936Z,8.27
2022-12-20T07:50:46.379Z,8.95
2022-12-20T07:53:12.708Z,6.78
2022-12-20T07:55:40.576Z,8.00
2022-12-20T07:58:07.919Z,6.35
2022-12-20T08:00:34.386Z,11.57
2022-12-20T08:03:02.530Z,8.52
2022-12-20T08:05:28.985Z,19.77
2022-12-20T08:07:59.392Z,10.30
2022-12-20T08:10:26.174Z,11.73
2022-12-20T08:12:52.526Z,103.22
2022-12-20T08:15:19.419Z,83.35
2022-12-20T08:17:45.656Z,51.08
2022-12-20T08:20:12.021Z,75.45
2022-12-20T08:22:38.233Z,23.08
2022-12-20T08:25:04.718Z,48.30
2022-12-20T08:27:30.900Z,16.15
2022-12-20T08:29:57.160Z,12.05
2022-12-20T08:32:23.360Z,10.73
2022-12-20T08:34:49.577Z,10.80
2022-12-20T08:37:19.171Z,8.77
2022-12-20T08:39:45.371Z,7.50
2022-12-20T08:42:11.650Z,8.15
2022-12-20T08:44:37.892Z,10.10
2022-12-20T08:47:04.255Z,8.07
2022-12-20T08:49:30.474Z,11.88
2022-12-20T08:51:56.745Z,5.55
2022-12-20T08:54:22.971Z,6.82
2022-12-20T08:56:49.178Z,5.38
2022-12-20T08:59:15.416Z,5.85
2022-12-20T09:01:41.753Z,6.85
2022-12-20T09:04:09.681Z,6.32
2022-12-20T09:06:36.703Z,6.82
2022-12-20T09:09:03.243Z,8.13
2022-12-20T09:11:29.567Z,14.48
2022-12-20T09:13:56.581Z,8.98
2022-12-20T09:16:25.622Z,6.75
2022-12-20T09:18:52.790Z,8.27
2022-12-20T09:21:19.582Z,7.35
2022-12-20T09:23:45.778Z,8.82
2022-12-20T09:26:13.064Z,7.90
2022-12-20T09:28:39.407Z,6.07
2022-12-20T09:31:06.544Z,4.90
2022-12-20T09:33:33.225Z,6.40
2022-12-20T09:35:59.943Z,7.85
2022-12-20T09:38:26.332Z,7.13
2022-12-20T09:40:55.238Z,6.18
2022-12-20T09:43:22.323Z,5.30
2022-12-20T09:45:50.453Z,5.13
2022-12-20T09:48:18.712Z,4.85
2022-12-20T09:51:03.320Z,4.93
2022-12-20T09:53:48.470Z,12.05
2022-12-20T09:56:28.247Z,6.22
2022-12-20T09:58:59.126Z,8.77
2022-12-20T10:01:31.195Z,5.88
2022-12-20T10:04:03.623Z,7.40
2022-12-20T10:06:48.493Z,9.35
2022-12-20T10:09:33.563Z,7.38
2022-12-20T10:12:20.054Z,10.18
2022-12-20T10:14:49.042Z,10.98
2022-12-20T10:17:37.900Z,5.80
2022-12-20T10:20:22.830Z,18.55
2022-12-20T10:22:52.053Z,7.70
2022-12-20T10:25:18.347Z,7.13
2022-12-20T10:27:45.937Z,4.78
2022-12-20T10:30:22.601Z,4.13
2022-12-20T10:32:50.066Z,3.85
2022-12-20T10:35:25.469Z,4.80
2022-12-20T10:38:10.117Z,3.30
2022-12-20T10:41:19.277Z,5.70
2022-12-20T10:43:56.275Z,4.22
2022-12-20T10:46:23.054Z,4.13
2022-12-20T10:48:50.631Z,3.08
2022-12-20T10:51:18.395Z,3.78
2022-12-20T10:53:58.435Z,4.00
2022-12-20T10:56:31.009Z,6.13
2022-12-20T10:59:02.342Z,6.40
2022-12-20T11:01:31.200Z,5.13
2022-12-20T11:03:59.436Z,6.60
2022-12-20T11:06:27.718Z,28.00
2022-12-20T11:09:12.066Z,8.23
2022-12-20T11:11:38.270Z,8.63
2022-12-20T11:14:14.167Z,6.78
2022-12-20T11:16:40.548Z,7.78
2022-12-20T11:19:13.714Z,7.75
2022-12-20T11:21:44.862Z,7.43
2022-12-20T11:24:40.399Z,7.90
2022-12-20T11:27:16.092Z,5.05
2022-12-20T11:29:50.607Z,8.38
2022-12-20T11:32:21.554Z,6.47
2022-12-20T11:34:47.810Z,7.68
2022-12-20T11:37:19.075Z,6.10
2022-12-20T11:40:14.442Z,5.68
2022-12-20T11:42:54.719Z,9.85
2022-12-20T11:45:30.050Z,5.38
2022-12-20T11:48:15.615Z,7.13
2022-12-20T11:50:44.919Z,5.88
2022-12-20T11:53:19.805Z,5.35
2022-12-20T11:55:48.253Z,7.03
2022-12-20T11:58:21.168Z,6.82
2022-12-20T12:00:57.559Z,6.78
2022-12-20T12:03:26.929Z,5.45
2022-12-20T12:05:55.601Z,7.25
2022-12-20T12:08:24.706Z,4.70
2022-12-20T12:10:56.155Z,6.13
2022-12-20T12:13:27.394Z,6.85
2022-12-20T12:16:13.990Z,5.90
2022-12-20T12:18:42.060Z,4.72
2022-12-20T12:21:24.765Z,5.43
2022-12-20T12:24:09.538Z,5.10
2022-12-20T12:26:37.184Z,5.40
2022-12-20T12:29:05.007Z,4.40
2022-12-20T12:31:31.253Z,6.93
2022-12-20T12:34:03.318Z,5.55
2022-12-20T12:36:38.513Z,3.90
2022-12-20T12:39:14.504Z,6.20
2022-12-20T12:41:49.832Z,6.63
2022-12-20T12:44:19.010Z,3.15
2022-12-20T12:46:46.281Z,6.50
2022-12-20T12:49:17.580Z,3.22
2022-12-20T12:51:49.256Z,7.25
2022-12-20T12:54:21.917Z,6.25
2022-12-20T12:56:49.129Z,5.50
2022-12-20T12:59:33.698Z,5.00
2022-12-20T13:02:06.621Z,6.35
2022-12-20T13:04:52.085Z,6.47
2022-12-20T13:07:25.830Z,6.40
2022-12-20T13:09:52.062Z,5.75
2022-12-20T13:12:36.674Z,5.03
2022-12-20T13:15:21.272Z,5.72
2022-12-20T13:17:57.314Z,6.43
2022-12-20T13:20:25.760Z,7.78
2022-12-20T13:23:13.076Z,6.38
2022-12-20T13:25:40.792Z,7.72
2022-12-20T13:28:16.483Z,8.40
2022-12-20T13:30:43.208Z,7.00
2022-12-20T13:33:20.376Z,6.30
2022-12-20T13:35:53.897Z,5.05
2022-12-20T13:38:39.072Z,4.68
2022-12-20T13:41:26.921Z,6.95
2022-12-20T13:43:59.762Z,6.63
2022-12-20T13:46:40.106Z,7.18
2022-12-20T13:49:10.528Z,7.18
2022-12-20T13:51:36.856Z,8.57
2022-12-20T13:54:04.789Z,7.20
2022-12-20T13:56:33.268Z,7.43
2022-12-20T13:59:03.971Z,6.07
2022-12-20T14:01:31.259Z,7.80
2022-12-20T14:03:58.141Z,7.10
2022-12-20T14:06:27.200Z,8.77
2022-12-20T14:08:53.939Z,7.22
2022-12-20T14:11:24.234Z,6.05
2022-12-20T14:17:26.448Z,7.85
2022-12-20T14:20:22.218Z,8.45
2022-12-20T14:23:10.880Z,6.05
2022-12-20T14:49:57.439Z,8.50
2022-12-20T14:55:45.800Z,5.88
2022-12-20T14:58:25.815Z,7.07
2022-12-20T15:00:55.867Z,5.45
2022-12-20T15:03:23.086Z,6.45
2022-12-20T15:05:50.927Z,7.70
2022-12-20T15:08:21.233Z,7.78
2022-12-20T15:10:52.897Z,6.82
2022-12-20T15:13:21.092Z,4.97
2022-12-20T15:15:47.522Z,7.25
2022-12-20T15:18:18.127Z,5.20
2022-12-20T15:20:45.673Z,5.15
2022-12-20T15:23:19.067Z,6.18
2022-12-20T15:25:45.931Z,4.50
2022-12-20T15:28:17.182Z,5.05
2022-12-20T15:30:43.907Z,4.93
2022-12-20T15:33:14.881Z,7.55
2022-12-20T15:35:41.481Z,6.47
2022-12-20T15:38:11.969Z,6.30
2022-12-20T15:40:39.191Z,6.70
2022-12-20T15:43:05.396Z,5.10
2022-12-20T15:45:32.261Z,7.05
2022-12-20T15:47:58.531Z,4.47
2022-12-20T15:50:24.724Z,4.95
2022-12-20T15:52:50.965Z,5.70
2022-12-20T15:55:17.225Z,5.88
2022-12-20T15:57:43.420Z,5.55
2022-12-20T16:00:09.856Z,6.50
2022-12-20T16:02:36.329Z,4.22
2022-12-20T16:05:02.943Z,5.78
2022-12-20T16:07:29.203Z,3.92
2022-12-20T16:09:55.639Z,5.90
2022-12-20T16:12:26.469Z,8.93
2022-12-20T16:14:52.700Z,7.05
2022-12-20T16:17:18.986Z,6.50
2022-12-20T16:19:45.991Z,6.15
2022-12-20T16:22:16.722Z,6.65
2022-12-20T16:24:43.438Z,9.07
2022-12-20T16:27:09.696Z,4.55
2022-12-20T16:29:35.959Z,5.05
2022-12-20T16:32:02.226Z,6.30
2022-12-20T16:34:28.509Z,8.90
2022-12-20T16:36:54.701Z,9.55
2022-12-20T16:39:22.180Z,8.88
2022-12-20T16:41:48.387Z,6.13
2022-12-20T16:44:15.571Z,6.63
2022-12-20T16:46:41.862Z,5.47
2022-12-20T16:49:13.452Z,5.85
2022-12-20T16:51:45.250Z,6.75
2022-12-20T16:54:19.697Z,10.68
2022-12-20T16:56:47.438Z,8.07
2022-12-20T16:59:20.067Z,6.18
2022-12-20T17:01:47.621Z,7.03
2022-12-20T17:04:14.736Z,7.95
2022-12-20T17:06:41.842Z,5.57
2022-12-20T17:09:08.298Z,8.00
2022-12-20T17:11:34.580Z,5.72
2022-12-20T17:14:00.986Z,6.45
2022-12-20T17:16:27.515Z,6.85
2022-12-20T17:18:54.565Z,5.82
2022-12-20T17:24:24.749Z,7.50
2022-12-20T17:26:50.965Z,6.53
2022-12-20T17:29:17.786Z,6.03
2022-12-20T17:31:44.665Z,6.30
2022-12-20T17:34:17.806Z,6.90
2022-12-20T17:36:44.343Z,6.38
2022-12-20T17:39:10.550Z,5.90
2022-12-20T17:41:36.835Z,6.53
2022-12-20T17:44:03.791Z,6.20
2022-12-20T17:46:30.262Z,6.10
2022-12-20T17:48:57.339Z,5.88
2022-12-20T17:51:25.569Z,6.45
2022-12-20T17:53:53.337Z,7.68
2022-12-20T17:56:20.565Z,7.78
2022-12-20T17:58:47.036Z,8.52
2022-12-20T18:01:16.255Z,6.22
2022-12-20T18:04:07.317Z,7.68
2022-12-20T18:06:31.103Z,8.82
2022-12-20T18:08:57.918Z,12.65
2022-12-20T18:11:25.318Z,8.45
2022-12-20T18:13:52.739Z,7.03
2022-12-20T18:16:20.314Z,8.80
2022-12-20T18:18:47.004Z,9.43
2022-12-20T18:21:14.566Z,9.95
2022-12-20T18:23:41.337Z,8.38
2022-12-20T18:26:20.959Z,10.68
2022-12-20T18:28:48.410Z,9.85
2022-12-20T18:31:16.393Z,6.85
2022-12-20T18:33:42.641Z,7.93
2022-12-20T18:36:10.010Z,7.82
2022-12-20T18:38:36.837Z,9.57
2022-12-20T18:41:04.208Z,9.52
2022-12-20T18:43:31.445Z,9.38
2022-12-20T18:46:04.637Z,12.07
2022-12-20T18:48:31.126Z,8.50
2022-12-20T18:51:02.261Z,7.78
2022-12-20T18:53:30.001Z,8.57
2022-12-20T18:55:56.323Z,7.32
2022-12-20T18:58:22.524Z,9.88
2022-12-20T19:00:51.849Z,6.45
2022-12-20T19:03:18.948Z,6.13
2022-12-20T19:05:45.219Z,7.40
2022-12-20T19:08:11.430Z,7.88
2022-12-20T19:10:37.625Z,6.88
2022-12-20T19:13:05.982Z,8.68
2022-12-20T19:15:32.505Z,9.23
2022-12-20T19:17:58.788Z,8.73
2022-12-20T19:20:25.040Z,8.68
2022-12-20T19:22:52.833Z,9.38
2022-12-20T19:25:19.196Z,10.60
2022-12-20T19:27:45.633Z,10.98
2022-12-20T19:30:11.932Z,11.52
2022-12-20T19:32:38.192Z,9.85
2022-12-20T19:35:29.923Z,9.48
2022-12-20T19:37:51.042Z,8.98
2022-12-20T19:40:17.272Z,9.35
2022-12-20T19:42:43.675Z,10.38
2022-12-20T19:45:10.288Z,11.15
2022-12-20T19:47:36.589Z,10.77
2022-12-20T19:50:03.199Z,9.52
2022-12-20T19:52:29.601Z,12.30
2022-12-20T19:54:55.841Z,12.20
2022-12-20T19:57:22.052Z,11.25
2022-12-20T19:59:52.247Z,15.35
2022-12-20T20:02:22.250Z,13.25
2022-12-20T20:04:48.939Z,11.13
2022-12-20T20:07:15.442Z,11.48
2022-12-20T20:09:41.763Z,10.98
2022-12-20T20:12:08.055Z,8.73
2022-12-20T20:14:34.333Z,10.80
2022-12-20T20:17:00.558Z,9.13
2022-12-20T20:19:26.802Z,8.25
2022-12-20T20:21:53.031Z,9.60
2022-12-20T20:24:19.265Z,9.02
2022-12-20T20:26:45.599Z,10.82
2022-12-20T20:29:11.820Z,11.30
2022-12-20T20:31:38.245Z,8.18
2022-12-20T20:34:04.576Z,9.55
2022-12-20T20:36:30.809Z,8.35
2022-12-20T20:38:57.204Z,10.10
2022-12-20T20:41:23.595Z,10.18
2022-12-20T20:43:49.806Z,9.50
2022-12-20T20:46:16.625Z,12.32
2022-12-20T20:48:43.668Z,9.93
2022-12-20T20:51:10.126Z,10.18
2022-12-20T20:53:36.375Z,9.95
2022-12-20T20:56:03.310Z,10.00
2022-12-20T20:58:29.670Z,14.02
2022-12-20T21:01:00.570Z,11.45
2022-12-20T21:03:27.764Z,11.52
2022-12-20T21:08:40.541Z,12.00
2022-12-20T21:11:07.620Z,13.27
2022-12-20T21:13:34.154Z,11.43
2022-12-20T21:16:11.139Z,13.10
2022-12-20T21:18:37.525Z,12.55
2022-12-20T21:21:11.327Z,9.35
2022-12-20T21:23:38.167Z,11.27
2022-12-20T21:26:04.499Z,13.90
2022-12-20T21:28:31.435Z,11.35
2022-12-20T21:30:59.003Z,10.88
2022-12-20T21:33:25.329Z,10.50
2022-12-20T21:36:01.589Z,12.23
2022-12-20T21:38:27.925Z,12.65
2022-12-20T21:41:04.189Z,10.80
2022-12-20T21:43:30.643Z,12.07
2022-12-20T21:45:57.243Z,11.02
2022-12-20T21:48:23.983Z,11.77
2022-12-20T21:51:00.273Z,9.85
2022-12-20T21:53:26.843Z,11.68
2022-12-20T21:55:53.606Z,10.90
2022-12-20T21:58:20.312Z,13.48
2022-12-20T22:00:52.523Z,11.02
2022-12-20T22:03:21.378Z,11.45
2022-12-20T22:05:48.048Z,12.48
2022-12-20T22:08:15.427Z,11.45
2022-12-20T22:10:42.068Z,10.85
2022-12-20T22:13:08.552Z,10.02
2022-12-20T22:15:34.780Z,13.90
2022-12-20T22:18:01.077Z,12.50
2022-12-20T22:20:27.365Z,10.45
2022-12-20T22:22:54.129Z,11.05
2022-12-20T22:25:20.407Z,13.77
2022-12-20T22:27:46.634Z,10.63
2022-12-20T22:30:12.879Z,13.23
2022-12-20T22:32:39.073Z,11.75
2022-12-20T22:35:05.499Z,12.43
2022-12-20T22:37:31.807Z,10.55
2022-12-20T22:39:58.034Z,12.48
2022-12-20T22:42:24.399Z,10.07
2022-12-20T22:44:50.768Z,12.35
2022-12-20T22:47:17.047Z,11.63
2022-12-20T22:49:43.252Z,10.93
2022-12-20T22:52:09.532Z,10.50
2022-12-20T22:54:35.760Z,12.65
2022-12-20T22:57:02.009Z,14.52
2022-12-20T22:59:28.193Z,15.40
2022-12-20T23:01:54.491Z,15.63
2022-12-20T23:04:21.034Z,16.80
2022-12-20T23:06:47.344Z,19.20
2022-12-20T23:09:13.528Z,14.18
2022-12-20T23:11:58.701Z,12.32
2022-12-20T23:14:43.379Z,15.00
2022-12-20T23:17:09.873Z,14.02
2022-12-20T23:19:54.739Z,10.38
2022-12-20T23:22:40.224Z,10.10
2022-12-20T23:25:11.705Z,12.18
2022-12-20T23:30:05.412Z,11.02
2022-12-20T23:32:31.630Z,9.07
2022-12-20T23:34:57.867Z,10.10
2022-12-20T23:37:24.081Z,11.02
2022-12-20T23:39:50.287Z,10.52
2022-12-20T23:42:16.576Z,11.00
2022-12-20T23:44:42.769Z,10.45
2022-12-20T23:47:13.003Z,9.32
2022-12-20T23:49:41.864Z,11.00
2022-12-20T23:52:08.117Z,10.07
2022-12-20T23:54:34.306Z,11.95
2022-12-20T23:57:00.513Z,12.55
2022-12-20T23:59:26.774Z,10.23
